| time (UTC) | temp F | wind direction | speed MPH | gust MPH | rain 1hr in | rain 24hr in | rain mn in | humidity % | barometer mb |
| 20260502123015 | 63 | 112 | 0.0 | 3.0 | 0.00 | 0.00 | 0.00 | 30 | 1010.1 |
| 20260502113015 | 71 | 327 | 1.0 | 6.0 | 0.00 | 0.00 | 0.00 | 18 | 1009.7 |
| 20260502110035 | 69 | 316 | 2.0 | 6.0 | 0.00 | 0.00 | 0.00 | 20 | 1009.7 |
| 20260502103035 | 69 | 279 | 1.0 | 6.0 | 0.00 | 0.00 | 0.00 | 21 | 1009.7 |
| 20260502070017 | 74 | 46 | 0.0 | 4.0 | 0.00 | 0.00 | 0.00 | 20 | 1009.4 |
| 20260502063055 | 80 | 325 | 1.0 | 10.0 | 0.00 | 0.00 | 0.00 | 14 | 1009.2 |
| 20260502060016 | 82 | 14 | 5.0 | 14.0 | 0.00 | 0.00 | 0.00 | 12 | 1008.8 |
| 20260502053015 | 81 | 21 | 5.0 | 14.0 | 0.00 | 0.00 | 0.00 | 14 | 1008.6 |
| 20260502050057 | 81 | 282 | 1.0 | 7.0 | 0.00 | 0.00 | 0.00 | 15 | 1008.4 |
| 20260502043016 | 84 | 328 | 1.0 | 7.0 | 0.00 | 0.00 | 0.00 | 13 | 1008.1 |
| 20260502040016 | 85 | 52 | 2.0 | 8.0 | 0.00 | 0.00 | 0.00 | 12 | 1007.8 |
| 20260502033016 | 86 | 23 | 5.0 | 14.0 | 0.00 | 0.00 | 0.00 | 13 | 1007.4 |
| 20260502030016 | 87 | 21 | 7.0 | 17.0 | 0.00 | 0.00 | 0.00 | 12 | 1007.1 |
| 20260502023017 | 89 | 12 | 9.0 | 17.0 | 0.00 | 0.00 | 0.00 | 12 | 1006.8 |
| 20260502020017 | 90 | 1 | 10.0 | 24.0 | 0.00 | 0.00 | 0.00 | 12 | 1006.4 |
| 20260502013016 | 91 | 351 | 13.0 | 24.0 | 0.00 | 0.00 | 0.00 | 12 | 1006.2 |
| 20260502010016 | 91 | 4 | 11.0 | 21.0 | 0.00 | 0.00 | 0.00 | 12 | 1006.2 |
| 20260502003016 | 91 | 3 | 12.0 | 23.0 | 0.00 | 0.00 | 0.00 | 12 | 1006.2 |
| 20260502000016 | 91 | 9 | 14.0 | 25.0 | 0.00 | 0.00 | 0.00 | 12 | 1006.2 |
| 20260501233037 | 91 | 11 | 13.0 | 25.0 | 0.00 | 0.00 | 0.00 | 12 | 1006.3 |
| 20260501230016 | 91 | 2 | 12.0 | 25.0 | 0.00 | 0.00 | 0.00 | 12 | 1006.6 |
| 20260501223016 | 91 | 5 | 11.0 | 26.0 | 0.00 | 0.00 | 0.00 | 13 | 1007.0 |
| 20260501220037 | 91 | 11 | 13.0 | 26.0 | 0.00 | 0.00 | 0.00 | 13 | 1007.4 |
| 20260501213016 | 90 | 17 | 12.0 | 23.0 | 0.00 | 0.00 | 0.00 | 13 | 1007.9 |
| 20260501210036 | 90 | 13 | 10.0 | 20.0 | 0.00 | 0.00 | 0.00 | 14 | 1008.2 |
| 20260501203015 | 90 | 4 | 11.0 | 20.0 | 0.00 | 0.00 | 0.00 | 13 | 1008.4 |
| 20260501200036 | 89 | 356 | 12.0 | 20.0 | 0.00 | 0.00 | 0.00 | 13 | 1008.6 |
| 20260501193016 | 88 | 355 | 13.0 | 25.0 | 0.00 | 0.00 | 0.00 | 13 | 1008.9 |
| 20260501190036 | 87 | 356 | 13.0 | 25.0 | 0.00 | 0.00 | 0.00 | 14 | 1009.2 |
| 20260501183016 | 86 | 355 | 14.0 | 23.0 | 0.00 | 0.00 | 0.00 | 14 | 1009.5 |
| 20260501180016 | 85 | 8 | 15.0 | 24.0 | 0.00 | 0.00 | 0.00 | 15 | 1009.8 |
| 20260501173015 | 84 | 6 | 15.0 | 28.0 | 0.00 | 0.00 | 0.00 | 15 | 1009.9 |
| 20260501170035 | 83 | 8 | 15.0 | 28.0 | 0.00 | 0.00 | 0.00 | 17 | 1010.0 |
| 20260501163015 | 82 | 5 | 15.0 | 27.0 | 0.00 | 0.00 | 0.00 | 18 | 1010.2 |
| 20260501160055 | 81 | 9 | 15.0 | 23.0 | 0.00 | 0.00 | 0.00 | 18 | 1010.0 |
| 20260501153016 | 79 | 3 | 13.0 | 22.0 | 0.00 | 0.00 | 0.00 | 19 | 1009.8 |